VTSSVTSP

Guest
Details From VTSS - Songkhla Hat Yai Intl
To VTSP - Phuket Intl
Flight Number -
Tags Generated
Created
Modified
Stats Distance 143 nm / 264 km
Max Altitude 0 ft / 0 m
Waypoints 2
Social Downloads 11
Likes 0
Share VATSIM

Download

Looking for another format? Having issues loading an existing format? Contact us
Advertisement - Login to hide

Notes

Generated

Route

VTSS VTSP

ID Type Via Altitude Latitude Longitude Leg Dist Tot Dist Heading (true) Name
O VTSS APT - 0 ft / 0 m 6.93083˚ 100.37930˚ - 0 nm - -
O VTSP APT - 0 ft / 0 m 8.11189˚ 98.30327˚ 142 nm 142 nm 300° / 300° -

Altitude Profile

Advertisement - Login to hide

VTSS

Details ICAO VTSS (HDY)
Name Songkhla Hat Yai Intl
Region Thailand
Timezone Asia/Bangkok (UTC+7.0)
Stats Elevation 90 ft / 27 m (AMSL)
Location 6.932513° 100.392977°
Runways 1
Magnetic Variation 0.253° W

METAR

VTSS 231500Z 21002KT 9999 FEW020 BKN100 26/275 Q1009 NOSIG

Decode

TAF

TAF VTSS 231100Z 2312/2412 18004KT 9999 SCT020 BKN100 TEMPO 2312/2315 7000 -RA SCT015 BKN100 BECMG 2321/2323 3000 BR BECMG 2401/2403 9999 NSW TEMPO 2406/2412 VRB10G20KT 6000 -TSRA FEW016CB SCT018 BKN100

Decode

Departure Runways

ID Width Length Bearing (true) Bearing (mag) Surface Threshold Offset Overrun Length
08 148 ft / 45 m 9,984 ft / 3,043 m 82.94° 83.19° Asphalt 0 ft / 0 m 197 ft / 60 m
26 148 ft / 45 m 9,984 ft / 3,043 m 262.95° 263.20° Asphalt 0 ft / 0 m 197 ft / 60 m

VTSP

Details ICAO VTSP (HKT)
Name Phuket Intl
Region Thailand
Timezone Asia/Bangkok (UTC+7.0)
Stats Elevation 82 ft / 25 m (AMSL)
Location 8.113199° 98.316871°
Runways 1
Magnetic Variation 0.423° W

METAR

VTSP 231500Z VRB02KT 8000 FEW020 SCT100 26/24 Q1010 NOSIG

Decode

TAF

TAF VTSP 231100Z 2312/2418 VRB02KT 8000 FEW020 BKN100 BECMG 2402/2404 09008KT 9999 FEW020 TEMPO 2406/2410 VRB10G20KT 5000 TSRA FEW018CB SCT020 BKN100

Decode

Destination Runways

ID Width Length Bearing (true) Bearing (mag) Surface Threshold Offset Overrun Length
09 148 ft / 45 m 9,870 ft / 3,008 m 84.45° 84.87° Asphalt 0 ft / 0 m 197 ft / 60 m
27 148 ft / 45 m 9,870 ft / 3,008 m 264.46° 264.88° Asphalt 0 ft / 0 m 197 ft / 60 m

Approach Navaids

Runway Type Ident Frequency Range Bearing (true) Bearing (mag) Slope Elevation
27 Localiser IPKT 109.90 MHz 18 nm / 33 km 263.45° 263.88° - 19 ft / 6 m (AMSL)
27 Glidescope IPKT 109.90 MHz 10 nm / 19 km 263.45° 263.88° 3.20° 82 ft / 25 m (AMSL)
27 DME IPKT 109.90 MHz 18 nm / 33 km - - - 82 ft / 25 m (AMSL)

Popular Alternatives